Flight Track Log - Related Links

Times and Time Zones

All times are in EDT time to prevent confusion due to time zone crossing. See the EGF2759 flight status page for this flight to view local times or setup timezone preferences in your user account.

Time Position Orientation Groundspeed Altitude Reporting Facility
EDT Latitude Longitude Course Direction KTS MPH feet Rate Location/Type
Tue 08:59:29 PM 41.9333 -87.9167 180° South 172 198 2,200  Level Chicago TRACON
Tue 09:00:29 PM 41.9000 -87.9667 228° Southwest 217 250 4,600 1,450 Climbing Chicago TRACON
Tue 09:01:00 PM 41.7037 -87.9611 189° South  Level Estimated
Tue 09:01:29 PM 41.8333 -87.9833 191° South 258 297 5,100  Level Chicago TRACON
Tue 09:02:00 PM 41.6110 -87.9782 188° South  Level FlightAware Approximate
Tue 09:02:52 PM 41.7381 -87.9850 181° South 264 304 7,500  Level Chicago Center
Tue 09:03:00 PM 41.5183 -87.9963 189° South  Level Estimated
Tue 09:03:54 PM 41.6606 -87.9981 187° South 279 321 10,100  Level Chicago Center
Tue 09:04:00 PM 41.4257 -88.0143 180° South  Level Estimated
Tue 09:04:56 PM 41.5628 -88.0078 184° South 294 338 12,700  Level Chicago Center
Tue 09:05:58 PM 41.4753 -88.0194 186° South 311 358 14,100 1,113 Climbing Chicago Center
Tue 09:07:00 PM 41.3878 -88.0358 188° South 327 376 15,000 432 Climbing Chicago Center
Tue 09:08:03 PM 41.2678 -88.0567 187° South 367 422 15,000  Level Chicago Center
Tue 09:09:05 PM 41.1597 -88.0764 188° South 388 447 15,000  Level Chicago Center
Tue 09:10:07 PM 41.0539 -88.0947 187° South 387 445 15,000 -290 Level Chicago Center
Tue 09:11:09 PM 40.9503 -88.1136 188° South 380 437 14,400 -871 Descending Chicago Center
Tue 09:12:11 PM 40.8231 -88.1372 188° South 384 442 13,200 -1,113 Descending Chicago Center
Tue 09:13:13 PM 40.7200 -88.1567 188° South 377 434 12,100 -1,016 Descending Chicago Center
Tue 09:14:15 PM 40.6208 -88.1761 188° South 365 420 11,100 -532 Descending Chicago Center
Tue 09:15:17 PM 40.5281 -88.2147 198° South 353 406 11,000 -97 Descending Chicago Center
Tue 09:16:19 PM 40.4364 -88.2511 197° South 349 402 10,900 -1,113 Descending Chicago Center
Tue 09:17:21 PM 40.3469 -88.2850 196° South 280 322 8,700 -2,226 Descending Chicago Center
Tue 09:18:23 PM 40.2753 -88.3131 197° South 272 313 6,300 -2,226 Descending Chicago Center
Tue 09:19:25 PM 40.2069 -88.3394 196° South 263 303 4,100 -2,129 Descending Chicago Center

Login

Don't have an account? Register now (free) for customized features, flight alerts, and more!